Time;durP1;ratioP1;P1;durP2;ratioP2;P2;SDS_P1;SDS_P2;PMS_P1;PMS_P2;Temp;Humidity;BMP_temperature;BMP_pressure;BME280_temperature;BME280_humidity;BME280_pressure;Samples;Min_cycle;Max_cycle;Signal;HPM_P1;HPM_P2
2023/06/27 00:01:25;;;;;;;3.63;1.42;;;16.50;99.10;;;;;;4932366;29;20057;-84
2023/06/27 00:03:51;;;;;;;4.45;1.40;;;16.40;99.10;;;;;;4924923;29;20463;-83
2023/06/27 00:06:20;;;;;;;6.90;1.50;;;16.40;99.10;;;;;;4949780;28;20035;-84
2023/06/27 00:08:47;;;;;;;6.93;1.77;;;16.40;99.20;;;;;;4948996;28;20042;-84
2023/06/27 00:11:14;;;;;;;4.57;1.92;;;16.40;99.00;;;;;;4949638;29;20035;-84
2023/06/27 00:13:40;;;;;;;3.42;1.38;;;16.40;99.10;;;;;;4950662;29;20062;-83
2023/06/27 00:16:09;;;;;;;7.53;2.13;;;16.60;99.30;;;;;;4930004;29;20043;-84
2023/06/27 00:18:35;;;;;;;4.68;1.88;;;16.40;99.30;;;;;;4917828;29;20046;-84
2023/06/27 00:21:01;;;;;;;4.70;1.45;;;16.50;99.30;;;;;;4946656;29;20035;-83
2023/06/27 00:23:33;;;;;;;5.88;1.77;;;16.40;99.60;;;;;;4926280;28;20413;-84
2023/06/27 00:26:00;;;;;;;8.25;2.15;;;16.40;99.70;;;;;;4928723;29;20380;-85
2023/06/27 00:28:27;;;;;;;5.75;1.55;;;16.30;99.60;;;;;;4930861;29;20478;-85
2023/06/27 00:30:53;;;;;;;5.03;1.90;;;16.40;99.70;;;;;;4949092;29;20118;-85
2023/06/27 00:33:19;;;;;;;5.35;2.00;;;16.30;99.50;;;;;;4950645;28;20039;-85
2023/06/27 00:35:45;;;;;;;4.28;1.70;;;16.30;99.70;;;;;;4929918;28;20384;-85
2023/06/27 00:38:12;;;;;;;4.90;1.40;;;16.20;99.90;;;;;;4950090;28;20636;-85
2023/06/27 00:40:37;;;;;;;7.10;1.98;;;16.20;99.90;;;;;;4945718;29;20052;-85
2023/06/27 00:43:03;;;;;;;4.35;1.77;;;16.10;99.90;;;;;;4919415;29;20126;-85
2023/06/27 00:45:29;;;;;;;4.90;1.65;;;16.20;99.90;;;;;;4931865;29;20043;-85
2023/06/27 00:47:56;;;;;;;4.25;1.30;;;16.20;99.90;;;;;;4949513;28;20043;-85
2023/06/27 00:50:24;;;;;;;5.47;1.63;;;16.20;99.90;;;;;;4930691;29;20059;-84
2023/06/27 00:52:51;;;;;;;3.45;1.33;;;16.20;99.80;;;;;;4945463;29;20058;-85
2023/06/27 00:55:17;;;;;;;5.57;1.58;;;16.20;99.90;;;;;;4933752;28;20034;-85
2023/06/27 00:57:46;;;;;;;4.18;1.88;;;16.10;99.90;;;;;;4946762;28;20459;-85
2023/06/27 01:00:16;;;;;;;5.35;1.95;;;16.10;99.90;;;;;;4944349;28;20125;-85
2023/06/27 01:02:42;;;;;;;4.82;1.80;;;16.10;99.80;;;;;;4948489;28;20035;-85
2023/06/27 01:05:09;;;;;;;3.88;1.48;;;16.10;99.90;;;;;;4949505;28;20071;-85
2023/06/27 01:07:42;;;;;;;4.70;2.13;;;16.10;99.90;;;;;;4950186;28;20065;-85
2023/06/27 01:10:21;;;;;;;6.20;2.10;;;16.10;99.90;;;;;;4948520;28;20455;-84
2023/06/27 01:13:10;;;;;;;5.65;1.77;;;16.00;99.90;;;;;;4928887;28;20054;-85
2023/06/27 01:15:36;;;;;;;3.70;1.88;;;16.00;99.90;;;;;;4946739;28;20042;-84
2023/06/27 01:18:05;;;;;;;5.05;1.98;;;16.00;99.90;;;;;;4932111;29;20047;-85
2023/06/27 01:20:32;;;;;;;4.25;1.58;;;16.00;99.90;;;;;;4929948;29;20517;-85
2023/06/27 01:23:25;;;;;;;5.15;2.10;;;16.10;99.90;;;;;;4926034;29;20451;-85
2023/06/27 01:25:59;;;;;;;5.93;2.58;;;16.00;99.70;;;;;;4946043;28;20563;-84
2023/06/27 01:28:25;;;;;;;4.28;2.10;;;16.10;99.90;;;;;;4931378;29;20442;-84
2023/06/27 01:30:51;;;;;;;5.25;2.13;;;16.10;99.90;;;;;;4931093;29;20035;-84
2023/06/27 01:33:27;;;;;;;4.53;2.13;;;16.00;99.90;;;;;;4948955;28;20050;-83
2023/06/27 01:36:02;;;;;;;4.25;1.65;;;16.00;99.90;;;;;;4931547;29;20090;-83
2023/06/27 01:38:38;;;;;;;6.38;2.33;;;15.80;99.90;;;;;;4930417;29;20081;-83
2023/06/27 01:41:06;;;;;;;6.68;2.25;;;15.70;99.90;;;;;;4928155;29;20099;-84
2023/06/27 01:43:34;;;;;;;8.07;2.40;;;15.70;99.90;;;;;;4947497;28;20058;-83
2023/06/27 01:46:01;;;;;;;3.95;2.03;;;15.60;99.90;;;;;;4929213;29;20406;-84
2023/06/27 01:48:30;;;;;;;5.35;2.30;;;15.60;99.90;;;;;;4943618;29;20077;-83
2023/06/27 01:50:56;;;;;;;5.90;2.60;;;15.60;99.90;;;;;;4942477;28;20051;-83
2023/06/27 01:53:22;;;;;;;5.88;1.85;;;15.50;99.90;;;;;;4929357;29;20537;-83
2023/06/27 01:55:48;;;;;;;6.60;2.13;;;15.40;99.90;;;;;;4915929;29;20039;-84
2023/06/27 01:58:14;;;;;;;6.55;2.47;;;15.40;99.90;;;;;;4941961;28;20047;-83
2023/06/27 02:00:40;;;;;;;5.43;1.85;;;15.30;99.90;;;;;;4914938;29;20086;-84
2023/06/27 02:03:06;;;;;;;5.90;2.47;;;15.30;99.90;;;;;;4927341;29;20160;-84
2023/06/27 02:05:32;;;;;;;8.20;2.58;;;15.40;99.90;;;;;;4931574;29;20035;-84
2023/06/27 02:07:57;;;;;;;6.78;2.38;;;15.40;99.90;;;;;;4943655;28;20094;-84
2023/06/27 02:10:23;;;;;;;5.03;2.60;;;15.40;99.90;;;;;;4949965;28;20118;-83
2023/06/27 02:12:50;;;;;;;4.85;2.60;;;15.40;99.90;;;;;;4950158;28;20570;-83
2023/06/27 02:15:16;;;;;;;5.95;2.58;;;15.30;99.90;;;;;;4942494;29;20046;-83
2023/06/27 02:17:42;;;;;;;6.20;2.40;;;15.20;99.90;;;;;;4929591;29;20619;-83
2023/06/27 02:20:08;;;;;;;4.05;1.52;;;15.20;99.90;;;;;;4916581;28;20035;-83
2023/06/27 02:22:34;;;;;;;5.28;2.38;;;15.20;99.90;;;;;;4928073;29;20054;-83
2023/06/27 02:25:00;;;;;;;7.72;2.55;;;15.20;99.90;;;;;;4924821;29;20047;-83
2023/06/27 02:27:26;;;;;;;7.20;2.83;;;15.30;99.90;;;;;;4948223;28;20463;-83
2023/06/27 02:29:51;;;;;;;6.40;2.88;;;15.30;99.90;;;;;;4952646;28;20040;-83
2023/06/27 02:32:17;;;;;;;6.15;2.30;;;15.30;99.90;;;;;;4952564;28;20502;-83
2023/06/27 02:34:43;;;;;;;4.97;2.60;;;15.30;99.90;;;;;;4931899;29;20104;-84
2023/06/27 02:37:09;;;;;;;8.00;2.47;;;15.20;99.90;;;;;;4948811;29;20039;-84
2023/06/27 02:39:35;;;;;;;9.57;2.90;;;15.20;99.90;;;;;;4920086;29;20047;-83
2023/06/27 02:42:01;;;;;;;6.43;2.70;;;15.10;99.90;;;;;;4952113;29;20035;-83
2023/06/27 02:44:27;;;;;;;6.55;2.53;;;15.00;99.90;;;;;;4924490;29;20051;-83
2023/06/27 02:46:53;;;;;;;6.97;2.38;;;14.90;99.90;;;;;;4947534;29;20035;-83
2023/06/27 02:49:19;;;;;;;5.00;2.40;;;14.90;99.90;;;;;;4952590;28;20038;-83
2023/06/27 02:51:45;;;;;;;10.57;3.08;;;14.80;99.90;;;;;;4950236;29;20407;-83
2023/06/27 02:54:11;;;;;;;6.35;3.05;;;14.90;99.90;;;;;;4949404;29;20449;-83
2023/06/27 02:56:37;;;;;;;6.75;2.92;;;14.90;99.90;;;;;;4952204;28;20094;-83
2023/06/27 02:59:02;;;;;;;6.53;2.70;;;14.80;99.90;;;;;;4918169;29;20046;-83
2023/06/27 03:01:29;;;;;;;6.38;2.33;;;14.80;99.90;;;;;;4934036;29;20051;-82
2023/06/27 03:03:55;;;;;;;5.50;3.10;;;14.60;99.90;;;;;;4929479;28;20036;-83
2023/06/27 03:06:22;;;;;;;6.32;3.20;;;14.50;99.90;;;;;;4950015;28;20062;-83
2023/06/27 03:08:49;;;;;;;6.10;2.28;;;14.60;99.90;;;;;;4932554;29;20043;-83
2023/06/27 03:11:15;;;;;;;5.80;2.38;;;14.50;99.90;;;;;;4951809;28;20522;-83
2023/06/27 03:13:41;;;;;;;4.97;2.15;;;14.50;99.90;;;;;;4934904;29;20085;-83
2023/06/27 03:16:07;;;;;;;4.50;2.50;;;14.60;99.90;;;;;;4933608;29;20293;-83
2023/06/27 03:18:33;;;;;;;5.90;2.95;;;14.60;99.90;;;;;;4952181;29;20113;-84
2023/06/27 03:20:59;;;;;;;6.22;2.47;;;14.60;99.90;;;;;;4934343;29;20050;-83
2023/06/27 03:23:25;;;;;;;4.93;2.75;;;14.60;99.90;;;;;;4949981;28;20129;-83
2023/06/27 03:25:51;;;;;;;8.05;3.20;;;14.50;99.90;;;;;;4946268;28;20042;-83
2023/06/27 03:28:17;;;;;;;6.93;3.35;;;14.40;99.90;;;;;;4932125;29;20038;-84
2023/06/27 03:30:43;;;;;;;8.27;3.05;;;14.30;99.90;;;;;;4934351;29;20444;-82
2023/06/27 03:33:12;;;;;;;6.18;3.40;;;14.30;99.90;;;;;;4914236;29;20036;-82
2023/06/27 03:35:38;;;;;;;9.25;3.17;;;14.20;99.90;;;;;;4930951;29;20113;-84
2023/06/27 03:38:04;;;;;;;6.43;3.08;;;14.20;99.90;;;;;;4926700;29;20553;-83
2023/06/27 03:40:30;;;;;;;5.75;2.95;;;14.20;99.90;;;;;;4930123;29;20047;-84
2023/06/27 03:42:56;;;;;;;7.20;3.10;;;14.20;99.90;;;;;;4933689;29;20051;-84
2023/06/27 03:45:22;;;;;;;5.78;3.08;;;14.20;99.90;;;;;;4909660;28;20117;-84
2023/06/27 03:47:49;;;;;;;6.20;2.25;;;14.20;99.90;;;;;;4910116;29;20502;-84
2023/06/27 03:50:15;;;;;;;7.22;3.13;;;14.20;99.90;;;;;;4931237;29;20216;-84
2023/06/27 03:52:41;;;;;;;8.43;3.80;;;14.20;99.90;;;;;;4912699;29;20052;-84
2023/06/27 03:55:07;;;;;;;12.85;4.20;;;14.20;99.90;;;;;;4921519;29;20055;-84
2023/06/27 03:57:33;;;;;;;7.15;3.00;;;14.20;99.90;;;;;;4947723;28;20047;-84
2023/06/27 03:59:59;;;;;;;6.75;2.65;;;14.20;99.90;;;;;;4916906;28;20060;-84
2023/06/27 04:02:27;;;;;;;6.13;2.78;;;14.30;99.90;;;;;;4929771;29;20102;-84
2023/06/27 04:04:53;;;;;;;5.40;2.75;;;14.30;99.90;;;;;;4930276;29;20226;-84
2023/06/27 04:07:19;;;;;;;6.78;2.40;;;14.40;99.90;;;;;;4946608;28;20036;-84
2023/06/27 04:09:45;;;;;;;6.35;3.15;;;14.50;99.90;;;;;;4933948;29;20043;-84
2023/06/27 04:12:10;;;;;;;6.25;3.17;;;14.50;99.90;;;;;;4926006;29;20047;-84
2023/06/27 04:14:36;;;;;;;5.72;2.95;;;14.50;99.90;;;;;;4948122;29;20062;-84
2023/06/27 04:17:02;;;;;;;6.45;3.00;;;14.60;99.90;;;;;;4914597;29;20047;-84
2023/06/27 04:19:28;;;;;;;6.47;3.33;;;14.60;99.90;;;;;;4932297;29;20039;-84
2023/06/27 04:21:54;;;;;;;9.30;4.05;;;14.70;99.90;;;;;;4948673;29;20114;-84
2023/06/27 04:24:20;;;;;;;9.07;3.88;;;14.70;99.90;;;;;;4933688;29;20055;-84
2023/06/27 04:26:45;;;;;;;7.32;3.60;;;14.70;99.90;;;;;;4926108;29;20047;-84
2023/06/27 04:29:11;;;;;;;9.30;3.90;;;14.70;99.90;;;;;;4948878;28;20038;-84
2023/06/27 04:31:37;;;;;;;7.88;3.33;;;14.70;99.90;;;;;;4927009;29;20372;-83
2023/06/27 04:34:03;;;;;;;6.30;3.20;;;14.80;99.90;;;;;;4950546;29;20036;-83
2023/06/27 04:36:29;;;;;;;9.50;4.82;;;14.80;99.90;;;;;;4940868;29;20092;-84
2023/06/27 04:38:54;;;;;;;11.57;3.75;;;14.80;99.90;;;;;;4950127;29;20052;-85
2023/06/27 04:41:21;;;;;;;7.10;3.47;;;14.90;99.90;;;;;;4919945;29;20717;-84
2023/06/27 04:43:47;;;;;;;7.95;4.20;;;14.90;99.90;;;;;;4941683;28;20558;-84
2023/06/27 04:46:12;;;;;;;8.55;4.03;;;14.90;99.90;;;;;;4922944;29;20338;-84
2023/06/27 04:48:39;;;;;;;6.38;2.90;;;14.90;99.90;;;;;;4949148;29;20035;-83
2023/06/27 04:51:05;;;;;;;7.28;3.47;;;14.90;99.90;;;;;;4940925;28;20589;-84
2023/06/27 04:53:32;;;;;;;7.25;3.65;;;14.90;99.90;;;;;;4924044;29;20083;-85
2023/06/27 04:55:57;;;;;;;5.35;2.88;;;14.90;99.90;;;;;;4945279;28;20066;-85
2023/06/27 04:58:23;;;;;;;6.80;3.00;;;14.80;99.90;;;;;;4942992;29;20051;-85
2023/06/27 05:00:51;;;;;;;7.65;3.55;;;14.90;99.90;;;;;;4945695;28;20062;-85
2023/06/27 05:03:18;;;;;;;7.03;3.63;;;15.00;99.90;;;;;;4928570;29;20064;-85
2023/06/27 05:05:44;;;;;;;6.13;3.05;;;15.00;99.90;;;;;;4950510;28;20039;-85
2023/06/27 05:08:11;;;;;;;5.90;2.45;;;15.00;99.90;;;;;;4944331;28;20529;-85
2023/06/27 05:10:37;;;;;;;6.95;1.90;;;15.10;99.90;;;;;;4930809;29;20043;-85
2023/06/27 05:13:02;;;;;;;5.22;2.40;;;15.10;99.90;;;;;;4947772;28;20509;-85
2023/06/27 05:15:28;;;;;;;10.10;3.22;;;15.10;99.90;;;;;;4946732;28;20048;-85
2023/06/27 05:18:15;;;;;;;7.25;3.13;;;15.20;99.90;;;;;;4946100;29;20045;-83
2023/06/27 05:20:41;;;;;;;7.53;3.03;;;15.20;99.90;;;;;;4927847;29;20122;-85
2023/06/27 05:23:07;;;;;;;7.15;2.50;;;15.20;99.90;;;;;;4947868;28;20110;-85
2023/06/27 05:25:33;;;;;;;11.32;3.28;;;15.30;99.90;;;;;;4945852;28;20039;-85
2023/06/27 05:27:59;;;;;;;8.77;3.33;;;15.30;99.90;;;;;;4928604;29;20541;-84
2023/06/27 05:30:28;;;;;;;7.47;2.75;;;15.30;99.90;;;;;;4926570;29;20090;-82
2023/06/27 05:32:55;;;;;;;6.80;3.13;;;15.30;99.90;;;;;;4927712;29;20039;-84
2023/06/27 05:35:22;;;;;;;6.43;2.15;;;15.50;99.90;;;;;;4933732;29;20051;-82
2023/06/27 05:37:48;;;;;;;8.00;3.15;;;15.40;99.90;;;;;;4949085;29;20051;-84
2023/06/27 05:40:13;;;;;;;7.22;2.30;;;15.40;99.90;;;;;;4945052;28;20050;-83
2023/06/27 05:42:40;;;;;;;7.20;2.38;;;15.50;99.90;;;;;;4944777;29;20711;-84
2023/06/27 05:45:06;;;;;;;10.15;3.03;;;15.50;99.90;;;;;;4927094;29;20070;-84
2023/06/27 05:47:32;;;;;;;6.65;2.30;;;15.50;99.90;;;;;;4931543;29;20063;-83
2023/06/27 05:49:57;;;;;;;7.88;2.90;;;15.40;99.90;;;;;;4929378;29;20091;-83
2023/06/27 05:52:23;;;;;;;6.47;2.10;;;15.60;99.90;;;;;;4925663;29;20055;-86
2023/06/27 05:54:50;;;;;;;6.88;2.35;;;15.70;99.90;;;;;;4914156;28;20047;-86
2023/06/27 05:57:16;;;;;;;6.20;2.65;;;15.70;99.90;;;;;;4912895;29;20120;-89
2023/06/27 05:59:41;;;;;;;6.50;2.28;;;15.80;99.90;;;;;;4914756;29;20126;-85
2023/06/27 06:02:07;;;;;;;9.25;2.45;;;15.80;99.90;;;;;;4930548;29;20047;-86
2023/06/27 06:04:33;;;;;;;5.97;2.42;;;15.90;99.90;;;;;;4954780;28;20039;-89
2023/06/27 06:06:58;;;;;;;10.15;2.92;;;15.90;99.90;;;;;;4950833;29;20118;-88
2023/06/27 06:09:25;;;;;;;9.40;2.15;;;16.00;99.90;;;;;;4938273;29;20082;-88
2023/06/27 06:11:51;;;;;;;10.13;1.80;;;16.00;99.90;;;;;;4938509;29;20119;-87
2023/06/27 06:14:16;;;;;;;7.03;1.48;;;16.10;99.90;;;;;;4951924;29;20114;-84
2023/06/27 06:16:42;;;;;;;6.40;1.33;;;16.20;99.90;;;;;;4936968;29;20533;-94
2023/06/27 06:19:08;;;;;;;7.20;1.80;;;16.20;99.90;;;;;;4940810;29;20043;-88
2023/06/27 06:21:34;;;;;;;7.00;1.42;;;16.30;99.90;;;;;;4926954;28;20256;-86
2023/06/27 06:24:00;;;;;;;8.80;1.80;;;16.40;99.90;;;;;;4955966;29;20102;-85
2023/06/27 06:26:26;;;;;;;8.55;1.65;;;16.40;99.90;;;;;;4955908;28;20047;-85
2023/06/27 06:28:51;;;;;;;6.20;1.70;;;16.50;99.90;;;;;;4949701;29;20061;-85
2023/06/27 06:31:18;;;;;;;5.50;1.38;;;16.50;99.90;;;;;;4931092;29;20128;-80
2023/06/27 06:33:47;;;;;;;4.32;1.50;;;16.60;99.90;;;;;;4934503;29;20490;-84
2023/06/27 06:36:13;;;;;;;6.30;1.30;;;16.60;99.90;;;;;;4933407;28;20331;-83
2023/06/27 06:38:39;;;;;;;6.15;1.77;;;16.70;99.90;;;;;;4950218;28;20052;-84
2023/06/27 06:41:05;;;;;;;5.47;1.00;;;16.80;99.90;;;;;;4920886;29;20066;-84
2023/06/27 06:43:31;;;;;;;5.45;1.45;;;16.80;99.90;;;;;;4946378;29;20065;-84
2023/06/27 06:45:58;;;;;;;5.82;1.52;;;16.90;99.90;;;;;;4937823;29;20079;-84
2023/06/27 06:48:23;;;;;;;4.38;1.42;;;16.90;99.90;;;;;;4933736;29;20044;-84
2023/06/27 06:50:53;;;;;;;6.43;1.23;;;17.00;99.90;;;;;;4937168;29;20550;-85
2023/06/27 06:53:19;;;;;;;5.60;1.10;;;17.00;99.90;;;;;;4929427;29;20115;-87
2023/06/27 06:55:45;;;;;;;10.73;1.40;;;17.10;99.90;;;;;;4930517;29;20110;-84
2023/06/27 06:58:11;;;;;;;14.32;1.83;;;17.20;99.90;;;;;;4930465;29;20050;-84
2023/06/27 07:00:38;;;;;;;6.00;1.33;;;17.20;99.90;;;;;;4949519;29;20039;-84
2023/06/27 07:03:04;;;;;;;7.07;1.63;;;17.30;99.90;;;;;;4933964;29;20130;-84
2023/06/27 07:05:30;;;;;;;8.57;1.38;;;17.40;99.90;;;;;;4953795;28;20046;-85
2023/06/27 07:07:55;;;;;;;10.60;1.20;;;17.40;99.90;;;;;;4954538;29;20035;-84
2023/06/27 07:10:21;;;;;;;3.40;1.05;;;17.60;99.90;;;;;;4934004;29;20570;-84
2023/06/27 07:12:47;;;;;;;4.90;1.35;;;17.80;99.90;;;;;;4931008;28;20118;-84
2023/06/27 07:15:14;;;;;;;6.45;1.20;;;18.00;99.90;;;;;;4932968;29;20039;-84
2023/06/27 07:17:39;;;;;;;8.10;1.33;;;18.20;99.90;;;;;;4950161;28;20049;-84
2023/06/27 07:20:07;;;;;;;4.43;0.90;;;18.50;99.90;;;;;;4941190;28;20047;-85
2023/06/27 07:22:32;;;;;;;4.63;0.95;;;18.70;99.90;;;;;;4933916;29;20039;-84
2023/06/27 07:24:58;;;;;;;8.32;1.25;;;18.90;99.90;;;;;;4930779;29;20046;-84
2023/06/27 07:27:24;;;;;;;8.40;0.95;;;18.90;99.90;;;;;;4948079;29;20055;-84
2023/06/27 07:29:50;;;;;;;5.50;1.05;;;19.00;99.70;;;;;;4949062;28;20409;-85
2023/06/27 07:32:18;;;;;;;3.33;0.82;;;19.10;99.50;;;;;;4913565;29;20478;-85
2023/06/27 07:34:44;;;;;;;4.10;0.73;;;19.20;99.40;;;;;;4931182;29;20043;-84
2023/06/27 07:37:10;;;;;;;4.45;1.00;;;19.10;98.80;;;;;;4952105;28;20047;-85
2023/06/27 07:39:39;;;;;;;3.95;0.90;;;19.20;99.00;;;;;;4947724;28;20528;-85
2023/06/27 07:42:05;;;;;;;4.40;0.80;;;19.20;98.90;;;;;;4946262;29;20320;-85
2023/06/27 07:44:31;;;;;;;5.70;0.75;;;19.30;98.80;;;;;;4931873;29;20073;-85
2023/06/27 07:46:56;;;;;;;3.55;1.13;;;19.40;98.30;;;;;;4947674;29;20475;-85
2023/06/27 07:49:22;;;;;;;5.20;0.90;;;19.50;98.40;;;;;;4949316;29;20121;-85
2023/06/27 07:51:51;;;;;;;5.75;0.95;;;19.70;98.70;;;;;;4933777;29;20052;-85
2023/06/27 07:54:21;;;;;;;4.10;0.65;;;20.00;98.90;;;;;;4917880;29;20094;-85
2023/06/27 07:56:47;;;;;;;5.40;0.88;;;20.20;98.20;;;;;;4930024;29;20038;-85
2023/06/27 07:59:14;;;;;;;6.40;0.80;;;20.40;96.70;;;;;;4952603;29;20527;-86
2023/06/27 08:01:40;;;;;;;3.78;0.88;;;20.50;97.30;;;;;;4929470;29;20039;-86
2023/06/27 08:04:06;;;;;;;4.82;0.80;;;20.70;97.40;;;;;;4952323;28;20035;-89
2023/06/27 08:06:32;;;;;;;4.20;1.15;;;20.80;97.10;;;;;;4958202;28;20066;-89
2023/06/27 08:08:58;;;;;;;5.72;1.00;;;20.80;96.40;;;;;;4953297;29;20039;-89
2023/06/27 08:11:24;;;;;;;7.40;1.17;;;20.80;97.10;;;;;;4935806;29;20483;-89
2023/06/27 08:13:50;;;;;;;5.90;1.33;;;20.90;97.10;;;;;;4951245;28;20049;-89
2023/06/27 08:16:16;;;;;;;6.45;1.63;;;20.90;96.80;;;;;;4930930;29;20079;-88
2023/06/27 08:18:44;;;;;;;4.57;0.93;;;20.90;96.80;;;;;;4939195;29;20039;-89
2023/06/27 08:21:09;;;;;;;6.75;0.90;;;21.00;97.20;;;;;;4958748;29;20035;-90
2023/06/27 08:26:24;;;;;;;4.05;0.85;;;20.90;96.80;;;;;;5737305;22;20908;-96
2023/06/27 08:28:50;;;;;;;3.20;0.80;;;20.80;96.00;;;;;;4910695;29;20167;-86
2023/06/27 08:31:16;;;;;;;8.95;1.13;;;20.90;96.70;;;;;;4902876;29;20044;-86
2023/06/27 08:33:42;;;;;;;6.97;1.00;;;21.10;96.30;;;;;;4906575;29;20528;-86
2023/06/27 08:36:08;;;;;;;5.85;0.70;;;21.20;96.20;;;;;;4926794;29;20140;-86
2023/06/27 08:38:33;;;;;;;8.27;0.77;;;21.20;95.90;;;;;;4926430;29;20044;-86
2023/06/27 08:41:01;;;;;;;2.90;0.80;;;21.00;95.80;;;;;;4922263;29;20402;-85
2023/06/27 08:43:27;;;;;;;4.50;0.77;;;20.90;96.10;;;;;;4927553;29;20534;-86
2023/06/27 08:45:54;;;;;;;5.20;0.90;;;20.80;96.50;;;;;;4922463;29;20394;-86
2023/06/27 08:48:20;;;;;;;5.03;0.75;;;20.80;96.60;;;;;;4928720;29;21477;-86
2023/06/27 08:50:49;;;;;;;3.72;0.80;;;20.90;96.80;;;;;;4927383;29;20051;-86
2023/06/27 08:53:17;;;;;;;4.03;0.70;;;20.90;96.60;;;;;;4927250;29;20044;-86
2023/06/27 08:56:04;;;;;;;6.32;1.13;;;21.00;96.50;;;;;;4927435;29;20042;-86
2023/06/27 08:58:44;;;;;;;4.60;0.70;;;20.90;96.20;;;;;;4924952;29;20432;-86
2023/06/27 09:01:11;;;;;;;4.43;0.98;;;20.80;96.10;;;;;;4927044;29;20040;-85
2023/06/27 09:03:36;;;;;;;4.78;0.85;;;20.70;96.10;;;;;;4929365;29;20090;-86
2023/06/27 09:06:07;;;;;;;3.58;0.80;;;20.70;96.30;;;;;;4927839;29;20434;-86
2023/06/27 09:08:33;;;;;;;6.07;1.00;;;20.70;96.40;;;;;;4909459;29;20438;-85
2023/06/27 09:10:59;;;;;;;5.20;0.90;;;20.80;96.40;;;;;;4910529;29;20127;-85
2023/06/27 09:13:26;;;;;;;3.97;0.75;;;21.00;96.10;;;;;;4925150;29;20090;-85
2023/06/27 09:15:52;;;;;;;4.05;0.70;;;21.20;95.90;;;;;;4926557;29;20517;-86
2023/06/27 09:18:18;;;;;;;4.22;0.70;;;21.30;95.80;;;;;;4919608;29;20162;-90
2023/06/27 09:20:44;;;;;;;3.42;0.75;;;21.40;95.50;;;;;;4911191;29;20052;-85
2023/06/27 09:23:12;;;;;;;5.68;0.80;;;21.60;95.60;;;;;;4927455;29;20039;-84
2023/06/27 09:25:38;;;;;;;3.63;0.80;;;21.70;95.40;;;;;;4923954;29;20040;-86
2023/06/27 09:28:22;;;;;;;3.70;0.95;;;21.80;94.80;;;;;;4924214;29;20081;-86
2023/06/27 09:30:53;;;;;;;4.93;0.93;;;21.90;94.10;;;;;;4911950;29;20478;-86
2023/06/27 09:33:19;;;;;;;3.60;0.60;;;22.00;94.00;;;;;;4928329;29;20036;-86
2023/06/27 09:35:45;;;;;;;6.18;0.90;;;22.00;93.80;;;;;;4927828;29;20775;-87
2023/06/27 09:38:11;;;;;;;5.80;1.10;;;22.00;94.30;;;;;;4926983;29;20035;-85
2023/06/27 09:40:37;;;;;;;4.72;0.80;;;22.10;94.60;;;;;;4910584;29;20394;-86
2023/06/27 09:43:05;;;;;;;4.18;0.90;;;22.20;94.70;;;;;;4905264;29;20050;-85
2023/06/27 09:45:31;;;;;;;3.45;1.08;;;22.30;94.60;;;;;;4915238;29;20083;-85
2023/06/27 09:47:58;;;;;;;3.97;0.80;;;22.30;94.70;;;;;;4931979;29;20444;-85
2023/06/27 09:50:31;;;;;;;5.25;1.02;;;22.40;94.60;;;;;;4927368;29;20128;-84
2023/06/27 09:52:59;;;;;;;3.83;0.70;;;22.40;94.30;;;;;;4929728;29;20453;-86
2023/06/27 09:55:25;;;;;;;3.15;0.73;;;22.40;94.40;;;;;;4929710;29;20472;-84
2023/06/27 09:57:52;;;;;;;8.57;1.05;;;22.30;94.30;;;;;;4931436;29;20047;-84
2023/06/27 10:00:20;;;;;;;3.30;0.68;;;22.30;94.00;;;;;;4927977;29;20039;-84
2023/06/27 10:02:47;;;;;;;5.97;0.77;;;22.30;94.20;;;;;;4930116;29;20046;-88
2023/06/27 10:05:13;;;;;;;4.55;0.90;;;22.30;94.00;;;;;;4908262;29;20509;-84
2023/06/27 10:07:39;;;;;;;5.50;0.55;;;22.30;93.60;;;;;;4921416;29;20063;-86
2023/06/27 10:10:07;;;;;;;6.85;0.98;;;22.30;93.70;;;;;;4907424;29;20040;-87
2023/06/27 10:12:33;;;;;;;5.82;1.13;;;22.20;93.80;;;;;;4913980;29;20410;-87
2023/06/27 10:14:59;;;;;;;5.70;0.85;;;22.10;94.00;;;;;;4929410;29;20040;-86
2023/06/27 10:17:28;;;;;;;4.35;0.80;;;22.00;94.10;;;;;;4928331;29;20040;-86
2023/06/27 10:19:54;;;;;;;7.10;0.80;;;22.00;93.90;;;;;;4928177;29;20508;-86
2023/06/27 10:22:25;;;;;;;5.22;0.77;;;22.00;94.20;;;;;;4912600;29;20048;-86
2023/06/27 10:24:56;;;;;;;5.97;0.70;;;22.10;93.90;;;;;;4929101;29;20050;-85
2023/06/27 10:27:22;;;;;;;4.75;0.95;;;22.20;93.90;;;;;;4925415;29;20154;-85
2023/06/27 10:29:47;;;;;;;5.55;0.70;;;22.30;93.70;;;;;;4913325;29;20115;-86
2023/06/27 10:32:18;;;;;;;2.50;0.63;;;22.30;93.60;;;;;;4924538;29;20107;-86
2023/06/27 10:34:45;;;;;;;4.72;0.70;;;22.40;93.70;;;;;;4912081;29;20516;-86
2023/06/27 10:37:20;;;;;;;5.35;0.75;;;22.40;93.90;;;;;;4911582;29;20131;-86
2023/06/27 10:39:56;;;;;;;4.63;0.90;;;22.40;94.10;;;;;;4912883;29;20062;-86
2023/06/27 10:42:21;;;;;;;7.13;0.90;;;22.60;94.20;;;;;;4910634;29;20047;-86
2023/06/27 10:45:09;;;;;;;3.58;0.70;;;22.70;94.10;;;;;;4929390;29;20050;-86
2023/06/27 10:47:44;;;;;;;3.25;0.60;;;22.80;93.90;;;;;;4925728;29;20092;-86
2023/06/27 10:50:20;;;;;;;6.47;1.00;;;22.90;93.30;;;;;;4928380;29;20114;-86
2023/06/27 10:53:04;;;;;;;4.13;0.80;;;22.90;92.90;;;;;;4913227;29;20541;-86
2023/06/27 10:55:31;;;;;;;6.27;0.80;;;22.90;93.00;;;;;;4913826;29;20070;-86
2023/06/27 10:58:26;;;;;;;4.75;1.15;;;23.00;93.20;;;;;;4928775;29;20288;-86
2023/06/27 11:00:52;;;;;;;;;;;23.20;92.60;;;;;;4911664;29;20091;-86
2023/06/27 11:03:22;;;;;;;7.63;0.85;;;23.30;92.60;;;;;;4929440;29;19918;-87
2023/06/27 11:05:51;;;;;;;3.47;0.93;;;23.40;93.00;;;;;;4927685;29;20099;-85
2023/06/27 11:08:18;;;;;;;5.38;0.80;;;23.50;92.90;;;;;;4929633;29;20482;-87
2023/06/27 11:11:10;;;;;;;2.58;0.65;;;23.60;92.60;;;;;;4927837;29;20104;-87
2023/06/27 11:13:38;;;;;;;4.93;0.90;;;23.80;92.70;;;;;;4924867;29;20056;-87
2023/06/27 11:16:04;;;;;;;4.97;0.70;;;23.90;92.30;;;;;;4926514;29;20039;-87
2023/06/27 11:18:30;;;;;;;3.13;0.77;;;23.80;91.80;;;;;;4926790;29;20051;-94
2023/06/27 11:20:57;;;;;;;4.38;0.88;;;23.70;92.00;;;;;;4910238;29;20040;-89
2023/06/27 11:23:24;;;;;;;4.03;0.65;;;23.70;92.20;;;;;;4918955;29;20052;-86
2023/06/27 11:25:52;;;;;;;4.50;0.90;;;23.70;92.30;;;;;;4928734;29;20043;-87
2023/06/27 11:28:21;;;;;;;4.03;0.90;;;23.70;92.30;;;;;;4927475;29;20143;-86
2023/06/27 11:30:47;;;;;;;6.63;1.05;;;23.70;92.00;;;;;;4928755;29;20087;-89
2023/06/27 11:33:16;;;;;;;3.15;0.80;;;23.70;92.10;;;;;;4930304;29;20091;-89
2023/06/27 11:35:42;;;;;;;2.45;0.70;;;23.60;91.90;;;;;;4926790;29;20043;-87
2023/06/27 11:38:09;;;;;;;5.63;1.60;;;23.50;92.30;;;;;;4927104;29;20059;-86
2023/06/27 11:40:35;;;;;;;6.00;1.00;;;23.50;92.20;;;;;;4928591;29;20601;-88
2023/06/27 11:43:06;;;;;;;5.78;1.05;;;23.40;92.40;;;;;;4911935;29;20044;-86
2023/06/27 11:45:33;;;;;;;6.20;1.25;;;23.40;92.50;;;;;;4925507;29;20036;-86
2023/06/27 11:48:00;;;;;;;2.88;0.80;;;23.40;92.50;;;;;;4904884;29;20052;-87
2023/06/27 11:50:27;;;;;;;5.00;0.90;;;23.40;92.60;;;;;;4895057;29;20043;-89
2023/06/27 11:52:55;;;;;;;6.75;1.08;;;23.30;92.20;;;;;;4927655;29;20043;-88
2023/06/27 11:55:20;;;;;;;3.03;0.70;;;23.30;92.30;;;;;;4927495;29;20052;-87
2023/06/27 11:57:54;;;;;;;5.88;1.15;;;23.20;92.20;;;;;;4924663;29;20039;-87
2023/06/27 12:00:25;;;;;;;4.63;0.80;;;23.20;92.30;;;;;;4922819;29;20138;-88
2023/06/27 12:02:52;;;;;;;4.95;1.05;;;23.20;92.30;;;;;;4930110;29;20596;-88
2023/06/27 12:05:20;;;;;;;4.03;0.80;;;23.20;92.20;;;;;;4929831;29;20036;-87
2023/06/27 12:08:01;;;;;;;5.32;0.95;;;23.20;92.50;;;;;;4911941;29;20122;-89
2023/06/27 12:10:34;;;;;;;3.40;0.60;;;23.30;92.00;;;;;;4919217;29;20055;-89
2023/06/27 12:13:05;;;;;;;5.18;0.90;;;23.30;91.90;;;;;;4927602;29;20122;-89
2023/06/27 12:15:43;;;;;;;7.57;1.00;;;23.30;91.90;;;;;;4911696;29;20048;-89
2023/06/27 12:18:11;;;;;;;2.85;0.70;;;23.30;91.30;;;;;;4905785;29;20047;-87
2023/06/27 12:20:44;;;;;;;3.72;0.80;;;23.10;91.90;;;;;;4924159;29;20118;-88
2023/06/27 12:23:11;;;;;;;5.50;1.05;;;23.10;92.50;;;;;;4925401;29;20052;-87
2023/06/27 12:25:41;;;;;;;3.95;0.95;;;23.00;91.80;;;;;;4925156;29;20498;-87
2023/06/27 12:28:07;;;;;;;6.10;0.85;;;23.00;92.30;;;;;;4926510;29;20062;-87
2023/06/27 12:30:33;;;;;;;4.47;0.73;;;23.00;92.50;;;;;;4924795;29;20051;-87
2023/06/27 12:32:59;;;;;;;4.47;0.80;;;23.00;92.60;;;;;;4928933;29;20047;-88
2023/06/27 12:35:25;;;;;;;4.82;1.00;;;23.00;92.80;;;;;;4928358;29;20044;-88
2023/06/27 12:37:51;;;;;;;4.43;0.95;;;23.10;92.80;;;;;;4925086;29;20046;-87
2023/06/27 12:40:17;;;;;;;7.78;1.10;;;23.10;92.50;;;;;;4911596;29;20043;-87
2023/06/27 12:42:44;;;;;;;5.60;0.75;;;23.10;92.60;;;;;;4904198;29;20123;-86
2023/06/27 12:45:13;;;;;;;6.22;0.70;;;23.20;92.30;;;;;;4900919;29;20032;-86
2023/06/27 12:47:41;;;;;;;5.97;0.90;;;23.10;91.90;;;;;;4900988;29;20048;-86
2023/06/27 12:50:11;;;;;;;5.40;0.80;;;23.10;92.00;;;;;;4927820;29;20067;-86